sensor_id;sensor_type;location;lat;lon;timestamp;P1;durP1;ratioP1;P2;durP2;ratioP2
23252;SDS011;11795;47.054;15.408;2024-03-23T00:54:00;7.5;;;6.3;;
23252;SDS011;11795;47.054;15.408;2024-03-23T00:56:00;7.5;;;6.3;;
23252;SDS011;11795;47.054;15.408;2024-03-23T00:58:00;7.2;;;6.0;;
23252;SDS011;11795;47.054;15.408;2024-03-23T01:00:00;7.2;;;6.0;;
23252;SDS011;11795;47.054;15.408;2024-03-23T01:02:00;8.8;;;6.7;;
23252;SDS011;11795;47.054;15.408;2024-03-23T01:04:00;8.8;;;6.7;;
23252;SDS011;11795;47.054;15.408;2024-03-23T01:06:00;8.8;;;6.7;;
23252;SDS011;11795;47.054;15.408;2024-03-23T01:08:00;8.2;;;6.0;;
23252;SDS011;11795;47.054;15.408;2024-03-23T01:10:00;8.2;;;6.0;;
23252;SDS011;11795;47.054;15.408;2024-03-23T01:12:01;7.4;;;5.7;;
23252;SDS011;11795;47.054;15.408;2024-03-23T01:14:01;7.4;;;5.7;;
23252;SDS011;11795;47.054;15.408;2024-03-23T01:16:00;7.4;;;5.7;;
23252;SDS011;11795;47.054;15.408;2024-03-23T01:18:00;7.6;;;5.7;;
23252;SDS011;11795;47.054;15.408;2024-03-23T01:20:00;7.6;;;5.7;;
23252;SDS011;11795;47.054;15.408;2024-03-23T01:22:00;6.6;;;4.9;;
23252;SDS011;11795;47.054;15.408;2024-03-23T01:24:00;6.6;;;4.9;;
23252;SDS011;11795;47.054;15.408;2024-03-23T01:26:00;6.6;;;4.9;;
23252;SDS011;11795;47.054;15.408;2024-03-23T01:28:00;6.2;;;4.9;;
23252;SDS011;11795;47.054;15.408;2024-03-23T01:30:00;6.2;;;4.9;;
23252;SDS011;11795;47.054;15.408;2024-03-23T01:32:00;5.4;;;4.5;;
23252;SDS011;11795;47.054;15.408;2024-03-23T01:34:00;5.4;;;4.5;;
23252;SDS011;11795;47.054;15.408;2024-03-23T01:36:00;5.4;;;4.5;;
23252;SDS011;11795;47.054;15.408;2024-03-23T01:38:00;6.8;;;5.1;;
23252;SDS011;11795;47.054;15.408;2024-03-23T01:40:00;6.8;;;5.1;;
23252;SDS011;11795;47.054;15.408;2024-03-23T01:42:00;8.2;;;5.5;;
23252;SDS011;11795;47.054;15.408;2024-03-23T01:44:00;8.2;;;5.5;;
23252;SDS011;11795;47.054;15.408;2024-03-23T01:46:00;8.2;;;5.5;;
23252;SDS011;11795;47.054;15.408;2024-03-23T01:48:00;6.6;;;5.4;;
23252;SDS011;11795;47.054;15.408;2024-03-23T01:50:00;6.6;;;5.4;;
23252;SDS011;11795;47.054;15.408;2024-03-23T01:52:00;6.9;;;5.4;;
23252;SDS011;11795;47.054;15.408;2024-03-23T01:54:02;6.9;;;5.4;;
23252;SDS011;11795;47.054;15.408;2024-03-23T01:56:00;6.9;;;5.4;;
23252;SDS011;11795;47.054;15.408;2024-03-23T01:58:00;8.5;;;7.2;;
23252;SDS011;11795;47.054;15.408;2024-03-23T02:00:00;8.5;;;7.2;;
23252;SDS011;11795;47.054;15.408;2024-03-23T02:02:01;8.8;;;6.8;;
23252;SDS011;11795;47.054;15.408;2024-03-23T02:04:00;8.8;;;6.8;;
23252;SDS011;11795;47.054;15.408;2024-03-23T02:06:00;8.8;;;6.8;;
23252;SDS011;11795;47.054;15.408;2024-03-23T02:08:00;7.7;;;6.1;;
23252;SDS011;11795;47.054;15.408;2024-03-23T02:10:00;7.7;;;6.1;;
23252;SDS011;11795;47.054;15.408;2024-03-23T02:12:01;8.0;;;6.0;;
23252;SDS011;11795;47.054;15.408;2024-03-23T02:14:00;8.0;;;6.0;;
23252;SDS011;11795;47.054;15.408;2024-03-23T02:16:00;8.0;;;6.0;;
23252;SDS011;11795;47.054;15.408;2024-03-23T02:18:00;7.3;;;5.7;;
23252;SDS011;11795;47.054;15.408;2024-03-23T02:20:00;7.3;;;5.7;;
23252;SDS011;11795;47.054;15.408;2024-03-23T02:22:00;7.9;;;6.0;;
23252;SDS011;11795;47.054;15.408;2024-03-23T02:24:00;7.9;;;6.0;;
23252;SDS011;11795;47.054;15.408;2024-03-23T02:26:00;7.9;;;6.0;;
23252;SDS011;11795;47.054;15.408;2024-03-23T02:28:00;7.4;;;5.6;;
23252;SDS011;11795;47.054;15.408;2024-03-23T02:30:00;7.4;;;5.6;;
23252;SDS011;11795;47.054;15.408;2024-03-23T02:32:01;7.0;;;5.3;;
23252;SDS011;11795;47.054;15.408;2024-03-23T02:34:00;7.0;;;5.3;;
23252;SDS011;11795;47.054;15.408;2024-03-23T02:36:00;7.0;;;5.3;;
23252;SDS011;11795;47.054;15.408;2024-03-23T02:38:00;7.1;;;5.3;;
23252;SDS011;11795;47.054;15.408;2024-03-23T02:40:00;7.1;;;5.3;;
23252;SDS011;11795;47.054;15.408;2024-03-23T02:42:00;7.5;;;5.9;;
23252;SDS011;11795;47.054;15.408;2024-03-23T02:44:00;7.5;;;5.9;;
23252;SDS011;11795;47.054;15.408;2024-03-23T02:46:01;7.5;;;5.9;;
23252;SDS011;11795;47.054;15.408;2024-03-23T02:48:00;7.1;;;5.7;;
23252;SDS011;11795;47.054;15.408;2024-03-23T02:50:00;7.1;;;5.7;;
23252;SDS011;11795;47.054;15.408;2024-03-23T02:52:00;7.1;;;5.3;;
23252;SDS011;11795;47.054;15.408;2024-03-23T02:54:00;7.1;;;5.3;;
23252;SDS011;11795;47.054;15.408;2024-03-23T02:56:00;7.1;;;5.3;;
23252;SDS011;11795;47.054;15.408;2024-03-23T02:58:02;6.7;;;4.9;;
23252;SDS011;11795;47.054;15.408;2024-03-23T03:00:00;6.7;;;4.9;;
23252;SDS011;11795;47.054;15.408;2024-03-23T03:02:01;6.1;;;4.9;;
23252;SDS011;11795;47.054;15.408;2024-03-23T03:04:00;6.1;;;4.9;;
23252;SDS011;11795;47.054;15.408;2024-03-23T03:06:00;6.1;;;4.9;;
23252;SDS011;11795;47.054;15.408;2024-03-23T03:08:00;6.2;;;4.8;;
23252;SDS011;11795;47.054;15.408;2024-03-23T03:10:00;6.2;;;4.8;;
23252;SDS011;11795;47.054;15.408;2024-03-23T03:12:00;5.8;;;4.3;;
23252;SDS011;11795;47.054;15.408;2024-03-23T03:14:00;5.8;;;4.3;;
23252;SDS011;11795;47.054;15.408;2024-03-23T03:16:00;5.8;;;4.3;;
23252;SDS011;11795;47.054;15.408;2024-03-23T03:18:00;6.7;;;5.0;;
23252;SDS011;11795;47.054;15.408;2024-03-23T03:20:00;6.7;;;5.0;;
23252;SDS011;11795;47.054;15.408;2024-03-23T03:22:00;6.6;;;4.8;;
23252;SDS011;11795;47.054;15.408;2024-03-23T03:24:01;6.6;;;4.8;;
23252;SDS011;11795;47.054;15.408;2024-03-23T03:26:00;6.6;;;4.8;;
23252;SDS011;11795;47.054;15.408;2024-03-23T03:28:01;5.9;;;4.6;;
23252;SDS011;11795;47.054;15.408;2024-03-23T03:30:02;5.9;;;4.6;;
23252;SDS011;11795;47.054;15.408;2024-03-23T03:32:00;5.4;;;4.4;;
23252;SDS011;11795;47.054;15.408;2024-03-23T03:34:00;5.4;;;4.4;;
23252;SDS011;11795;47.054;15.408;2024-03-23T03:36:00;5.4;;;4.4;;
23252;SDS011;11795;47.054;15.408;2024-03-23T03:38:00;6.2;;;5.0;;
23252;SDS011;11795;47.054;15.408;2024-03-23T03:40:00;6.2;;;5.0;;
23252;SDS011;11795;47.054;15.408;2024-03-23T03:42:02;4.6;;;4.1;;
23252;SDS011;11795;47.054;15.408;2024-03-23T03:44:02;4.6;;;4.1;;
23252;SDS011;11795;47.054;15.408;2024-03-23T03:46:00;4.6;;;4.1;;
23252;SDS011;11795;47.054;15.408;2024-03-23T03:48:00;6.1;;;4.1;;
23252;SDS011;11795;47.054;15.408;2024-03-23T03:50:00;6.1;;;4.1;;
23252;SDS011;11795;47.054;15.408;2024-03-23T03:52:02;5.8;;;4.6;;
23252;SDS011;11795;47.054;15.408;2024-03-23T03:54:00;5.8;;;4.6;;
23252;SDS011;11795;47.054;15.408;2024-03-23T03:56:00;5.8;;;4.6;;
23252;SDS011;11795;47.054;15.408;2024-03-23T03:58:00;5.6;;;5.0;;
23252;SDS011;11795;47.054;15.408;2024-03-23T04:00:00;5.6;;;5.0;;
23252;SDS011;11795;47.054;15.408;2024-03-23T04:02:00;5.7;;;4.9;;
23252;SDS011;11795;47.054;15.408;2024-03-23T04:04:01;5.7;;;4.9;;
23252;SDS011;11795;47.054;15.408;2024-03-23T04:06:00;5.7;;;4.9;;
23252;SDS011;11795;47.054;15.408;2024-03-23T04:08:00;6.9;;;4.8;;
23252;SDS011;11795;47.054;15.408;2024-03-23T04:10:00;6.9;;;4.8;;
23252;SDS011;11795;47.054;15.408;2024-03-23T04:12:00;5.1;;;4.5;;
23252;SDS011;11795;47.054;15.408;2024-03-23T04:14:00;5.1;;;4.5;;
23252;SDS011;11795;47.054;15.408;2024-03-23T04:16:00;5.1;;;4.5;;
23252;SDS011;11795;47.054;15.408;2024-03-23T04:18:00;5.3;;;4.3;;
23252;SDS011;11795;47.054;15.408;2024-03-23T04:20:00;5.3;;;4.3;;
23252;SDS011;11795;47.054;15.408;2024-03-23T04:22:00;7.7;;;5.0;;
23252;SDS011;11795;47.054;15.408;2024-03-23T04:24:00;7.7;;;5.0;;
23252;SDS011;11795;47.054;15.408;2024-03-23T04:26:03;7.7;;;5.0;;
23252;SDS011;11795;47.054;15.408;2024-03-23T04:28:00;6.7;;;5.1;;
23252;SDS011;11795;47.054;15.408;2024-03-23T04:30:01;6.7;;;5.1;;
23252;SDS011;11795;47.054;15.408;2024-03-23T04:32:01;6.2;;;4.9;;
23252;SDS011;11795;47.054;15.408;2024-03-23T04:34:00;6.2;;;4.9;;
23252;SDS011;11795;47.054;15.408;2024-03-23T04:36:00;6.2;;;4.9;;
23252;SDS011;11795;47.054;15.408;2024-03-23T04:38:00;6.5;;;5.6;;
23252;SDS011;11795;47.054;15.408;2024-03-23T04:40:01;6.5;;;5.6;;
23252;SDS011;11795;47.054;15.408;2024-03-23T04:42:01;7.0;;;5.5;;
23252;SDS011;11795;47.054;15.408;2024-03-23T04:44:00;7.0;;;5.5;;
23252;SDS011;11795;47.054;15.408;2024-03-23T04:46:00;7.0;;;5.5;;
23252;SDS011;11795;47.054;15.408;2024-03-23T04:48:00;5.7;;;4.9;;
23252;SDS011;11795;47.054;15.408;2024-03-23T04:50:01;5.7;;;4.9;;
23252;SDS011;11795;47.054;15.408;2024-03-23T04:52:00;5.7;;;4.9;;
23252;SDS011;11795;47.054;15.408;2024-03-23T04:54:00;7.9;;;6.3;;
23252;SDS011;11795;47.054;15.408;2024-03-23T04:56:00;7.9;;;6.3;;
23252;SDS011;11795;47.054;15.408;2024-03-23T04:58:00;7.4;;;6.0;;
23252;SDS011;11795;47.054;15.408;2024-03-23T05:00:00;7.4;;;6.0;;
23252;SDS011;11795;47.054;15.408;2024-03-23T05:02:00;7.4;;;6.0;;
23252;SDS011;11795;47.054;15.408;2024-03-23T05:04:00;8.4;;;6.1;;
23252;SDS011;11795;47.054;15.408;2024-03-23T05:06:00;8.4;;;6.1;;
23252;SDS011;11795;47.054;15.408;2024-03-23T05:08:01;7.7;;;6.7;;
23252;SDS011;11795;47.054;15.408;2024-03-23T05:10:00;7.7;;;6.7;;
23252;SDS011;11795;47.054;15.408;2024-03-23T05:12:00;7.7;;;6.7;;
23252;SDS011;11795;47.054;15.408;2024-03-23T05:14:00;10.3;;;7.1;;
23252;SDS011;11795;47.054;15.408;2024-03-23T05:16:00;10.3;;;7.1;;
23252;SDS011;11795;47.054;15.408;2024-03-23T05:18:00;8.7;;;6.2;;
23252;SDS011;11795;47.054;15.408;2024-03-23T05:20:00;8.7;;;6.2;;
23252;SDS011;11795;47.054;15.408;2024-03-23T05:22:00;8.7;;;6.2;;
23252;SDS011;11795;47.054;15.408;2024-03-23T05:24:00;9.6;;;7.0;;
23252;SDS011;11795;47.054;15.408;2024-03-23T05:26:00;9.6;;;7.0;;
23252;SDS011;11795;47.054;15.408;2024-03-23T05:28:00;9.5;;;7.1;;
23252;SDS011;11795;47.054;15.408;2024-03-23T05:30:00;9.5;;;7.1;;
23252;SDS011;11795;47.054;15.408;2024-03-23T05:32:00;9.5;;;7.1;;
23252;SDS011;11795;47.054;15.408;2024-03-23T05:34:00;8.0;;;6.7;;
23252;SDS011;11795;47.054;15.408;2024-03-23T05:36:00;8.0;;;6.7;;
23252;SDS011;11795;47.054;15.408;2024-03-23T05:38:00;9.0;;;6.7;;
23252;SDS011;11795;47.054;15.408;2024-03-23T05:40:00;9.0;;;6.7;;
23252;SDS011;11795;47.054;15.408;2024-03-23T05:42:00;9.0;;;6.7;;
23252;SDS011;11795;47.054;15.408;2024-03-23T05:44:00;8.2;;;6.4;;
23252;SDS011;11795;47.054;15.408;2024-03-23T05:46:00;8.2;;;6.4;;
23252;SDS011;11795;47.054;15.408;2024-03-23T05:48:00;10.9;;;7.1;;
23252;SDS011;11795;47.054;15.408;2024-03-23T05:50:01;10.9;;;7.1;;
23252;SDS011;11795;47.054;15.408;2024-03-23T05:52:03;10.9;;;7.1;;
23252;SDS011;11795;47.054;15.408;2024-03-23T05:54:01;9.9;;;6.9;;
23252;SDS011;11795;47.054;15.408;2024-03-23T05:56:00;9.9;;;6.9;;
23252;SDS011;11795;47.054;15.408;2024-03-23T05:58:00;9.7;;;7.1;;
23252;SDS011;11795;47.054;15.408;2024-03-23T06:00:00;9.7;;;7.1;;
23252;SDS011;11795;47.054;15.408;2024-03-23T06:02:00;9.7;;;7.1;;
23252;SDS011;11795;47.054;15.408;2024-03-23T06:04:01;10.1;;;6.5;;
23252;SDS011;11795;47.054;15.408;2024-03-23T06:06:00;10.1;;;6.5;;
23252;SDS011;11795;47.054;15.408;2024-03-23T06:08:00;9.2;;;6.9;;
23252;SDS011;11795;47.054;15.408;2024-03-23T06:10:00;9.2;;;6.9;;
23252;SDS011;11795;47.054;15.408;2024-03-23T06:12:00;9.2;;;6.9;;
23252;SDS011;11795;47.054;15.408;2024-03-23T06:14:00;9.5;;;6.6;;
23252;SDS011;11795;47.054;15.408;2024-03-23T06:16:00;9.5;;;6.6;;
23252;SDS011;11795;47.054;15.408;2024-03-23T06:18:00;8.4;;;6.3;;
23252;SDS011;11795;47.054;15.408;2024-03-23T06:20:00;8.4;;;6.3;;
23252;SDS011;11795;47.054;15.408;2024-03-23T06:22:00;8.4;;;6.3;;
23252;SDS011;11795;47.054;15.408;2024-03-23T06:24:00;10.2;;;7.0;;
23252;SDS011;11795;47.054;15.408;2024-03-23T06:26:00;10.2;;;7.0;;
23252;SDS011;11795;47.054;15.408;2024-03-23T06:28:02;8.3;;;6.4;;
23252;SDS011;11795;47.054;15.408;2024-03-23T06:30:00;8.3;;;6.4;;
23252;SDS011;11795;47.054;15.408;2024-03-23T06:32:00;8.3;;;6.4;;
23252;SDS011;11795;47.054;15.408;2024-03-23T06:34:01;7.6;;;6.5;;
23252;SDS011;11795;47.054;15.408;2024-03-23T06:36:00;7.6;;;6.5;;
23252;SDS011;11795;47.054;15.408;2024-03-23T06:38:00;8.8;;;6.2;;
23252;SDS011;11795;47.054;15.408;2024-03-23T06:40:00;8.8;;;6.2;;
23252;SDS011;11795;47.054;15.408;2024-03-23T06:42:00;8.8;;;6.2;;
23252;SDS011;11795;47.054;15.408;2024-03-23T06:44:00;10.1;;;6.6;;
23252;SDS011;11795;47.054;15.408;2024-03-23T06:46:01;10.1;;;6.6;;
23252;SDS011;11795;47.054;15.408;2024-03-23T06:48:00;7.7;;;6.3;;
23252;SDS011;11795;47.054;15.408;2024-03-23T06:50:02;7.7;;;6.3;;
23252;SDS011;11795;47.054;15.408;2024-03-23T06:52:00;7.7;;;6.3;;
23252;SDS011;11795;47.054;15.408;2024-03-23T06:54:00;7.5;;;5.9;;
23252;SDS011;11795;47.054;15.408;2024-03-23T06:56:01;7.5;;;5.9;;
23252;SDS011;11795;47.054;15.408;2024-03-23T06:58:00;9.2;;;6.5;;
23252;SDS011;11795;47.054;15.408;2024-03-23T07:00:00;9.2;;;6.5;;
23252;SDS011;11795;47.054;15.408;2024-03-23T07:02:00;9.2;;;6.5;;
23252;SDS011;11795;47.054;15.408;2024-03-23T07:04:00;8.3;;;6.1;;
23252;SDS011;11795;47.054;15.408;2024-03-23T07:06:00;8.3;;;6.1;;
23252;SDS011;11795;47.054;15.408;2024-03-23T07:08:00;9.9;;;6.8;;
23252;SDS011;11795;47.054;15.408;2024-03-23T07:10:00;9.9;;;6.8;;
23252;SDS011;11795;47.054;15.408;2024-03-23T07:12:00;9.9;;;6.8;;
23252;SDS011;11795;47.054;15.408;2024-03-23T07:14:00;9.0;;;6.4;;
23252;SDS011;11795;47.054;15.408;2024-03-23T07:16:00;9.0;;;6.4;;
23252;SDS011;11795;47.054;15.408;2024-03-23T07:18:00;7.3;;;5.4;;
23252;SDS011;11795;47.054;15.408;2024-03-23T07:20:01;7.3;;;5.4;;
23252;SDS011;11795;47.054;15.408;2024-03-23T07:22:00;7.3;;;5.4;;
23252;SDS011;11795;47.054;15.408;2024-03-23T07:24:00;8.6;;;6.2;;
23252;SDS011;11795;47.054;15.408;2024-03-23T07:26:00;8.6;;;6.2;;
23252;SDS011;11795;47.054;15.408;2024-03-23T07:28:00;8.4;;;6.5;;
23252;SDS011;11795;47.054;15.408;2024-03-23T07:30:01;8.4;;;6.5;;
23252;SDS011;11795;47.054;15.408;2024-03-23T07:32:00;8.4;;;6.5;;
23252;SDS011;11795;47.054;15.408;2024-03-23T07:34:00;7.9;;;6.3;;
23252;SDS011;11795;47.054;15.408;2024-03-23T07:36:00;7.9;;;6.3;;
23252;SDS011;11795;47.054;15.408;2024-03-23T07:38:05;8.1;;;6.4;;
23252;SDS011;11795;47.054;15.408;2024-03-23T07:40:00;8.1;;;6.4;;
23252;SDS011;11795;47.054;15.408;2024-03-23T07:42:00;8.1;;;6.4;;
23252;SDS011;11795;47.054;15.408;2024-03-23T07:44:00;8.1;;;6.5;;
23252;SDS011;11795;47.054;15.408;2024-03-23T07:46:00;8.1;;;6.5;;
23252;SDS011;11795;47.054;15.408;2024-03-23T07:48:00;7.7;;;6.4;;
23252;SDS011;11795;47.054;15.408;2024-03-23T07:50:00;7.7;;;6.4;;
23252;SDS011;11795;47.054;15.408;2024-03-23T07:52:00;7.7;;;6.4;;
23252;SDS011;11795;47.054;15.408;2024-03-23T07:54:00;8.0;;;6.6;;
23252;SDS011;11795;47.054;15.408;2024-03-23T07:56:01;8.0;;;6.6;;
23252;SDS011;11795;47.054;15.408;2024-03-23T07:58:00;6.5;;;5.8;;
23252;SDS011;11795;47.054;15.408;2024-03-23T08:00:00;6.5;;;5.8;;
23252;SDS011;11795;47.054;15.408;2024-03-23T08:02:00;6.5;;;5.8;;
23252;SDS011;11795;47.054;15.408;2024-03-23T08:04:00;9.6;;;7.2;;
23252;SDS011;11795;47.054;15.408;2024-03-23T08:06:06;9.6;;;7.2;;
23252;SDS011;11795;47.054;15.408;2024-03-23T08:08:00;9.0;;;6.7;;
23252;SDS011;11795;47.054;15.408;2024-03-23T08:10:00;9.0;;;6.7;;
23252;SDS011;11795;47.054;15.408;2024-03-23T08:12:00;9.0;;;6.7;;
23252;SDS011;11795;47.054;15.408;2024-03-23T08:14:01;10.2;;;6.9;;
23252;SDS011;11795;47.054;15.408;2024-03-23T08:16:00;10.2;;;6.9;;
23252;SDS011;11795;47.054;15.408;2024-03-23T08:18:00;9.6;;;7.2;;
23252;SDS011;11795;47.054;15.408;2024-03-23T08:20:00;9.6;;;7.2;;
23252;SDS011;11795;47.054;15.408;2024-03-23T08:22:00;9.6;;;7.2;;
23252;SDS011;11795;47.054;15.408;2024-03-23T08:24:00;10.4;;;6.7;;
23252;SDS011;11795;47.054;15.408;2024-03-23T08:26:00;10.4;;;6.7;;
23252;SDS011;11795;47.054;15.408;2024-03-23T08:28:00;8.4;;;6.7;;
23252;SDS011;11795;47.054;15.408;2024-03-23T08:30:00;8.4;;;6.7;;
23252;SDS011;11795;47.054;15.408;2024-03-23T08:32:01;8.4;;;6.7;;
23252;SDS011;11795;47.054;15.408;2024-03-23T08:34:00;7.1;;;6.1;;
23252;SDS011;11795;47.054;15.408;2024-03-23T08:36:00;7.1;;;6.1;;
23252;SDS011;11795;47.054;15.408;2024-03-23T08:38:00;7.1;;;6.2;;
23252;SDS011;11795;47.054;15.408;2024-03-23T08:40:00;7.1;;;6.2;;
23252;SDS011;11795;47.054;15.408;2024-03-23T08:42:00;7.1;;;6.2;;
23252;SDS011;11795;47.054;15.408;2024-03-23T08:44:00;10.8;;;7.0;;
23252;SDS011;11795;47.054;15.408;2024-03-23T08:46:03;10.8;;;7.0;;
23252;SDS011;11795;47.054;15.408;2024-03-23T08:48:00;9.7;;;6.6;;
23252;SDS011;11795;47.054;15.408;2024-03-23T08:50:00;9.7;;;6.6;;
23252;SDS011;11795;47.054;15.408;2024-03-23T08:52:00;9.7;;;6.6;;
23252;SDS011;11795;47.054;15.408;2024-03-23T08:54:00;8.5;;;6.3;;
23252;SDS011;11795;47.054;15.408;2024-03-23T08:56:01;8.5;;;6.3;;
23252;SDS011;11795;47.054;15.408;2024-03-23T08:58:00;6.9;;;5.4;;
23252;SDS011;11795;47.054;15.408;2024-03-23T09:00:00;6.9;;;5.4;;
23252;SDS011;11795;47.054;15.408;2024-03-23T09:02:00;6.9;;;5.4;;
23252;SDS011;11795;47.054;15.408;2024-03-23T09:04:00;7.2;;;5.5;;
23252;SDS011;11795;47.054;15.408;2024-03-23T09:06:00;7.2;;;5.5;;
23252;SDS011;11795;47.054;15.408;2024-03-23T09:08:00;8.8;;;5.6;;
23252;SDS011;11795;47.054;15.408;2024-03-23T09:10:00;8.8;;;5.6;;
23252;SDS011;11795;47.054;15.408;2024-03-23T09:12:00;8.8;;;5.6;;
23252;SDS011;11795;47.054;15.408;2024-03-23T09:14:00;6.4;;;5.2;;
23252;SDS011;11795;47.054;15.408;2024-03-23T09:16:00;6.4;;;5.2;;
23252;SDS011;11795;47.054;15.408;2024-03-23T09:18:00;6.2;;;4.6;;
23252;SDS011;11795;47.054;15.408;2024-03-23T09:20:00;6.2;;;4.6;;
23252;SDS011;11795;47.054;15.408;2024-03-23T09:22:00;6.2;;;4.6;;
23252;SDS011;11795;47.054;15.408;2024-03-23T09:24:00;6.7;;;4.8;;
23252;SDS011;11795;47.054;15.408;2024-03-23T09:26:02;6.7;;;4.8;;
23252;SDS011;11795;47.054;15.408;2024-03-23T09:28:00;6.6;;;4.5;;
23252;SDS011;11795;47.054;15.408;2024-03-23T09:30:00;6.6;;;4.5;;
23252;SDS011;11795;47.054;15.408;2024-03-23T09:32:00;6.6;;;4.5;;
23252;SDS011;11795;47.054;15.408;2024-03-23T09:34:00;7.6;;;5.0;;
23252;SDS011;11795;47.054;15.408;2024-03-23T09:36:02;7.6;;;5.0;;
23252;SDS011;11795;47.054;15.408;2024-03-23T09:38:00;9.0;;;4.5;;
23252;SDS011;11795;47.054;15.408;2024-03-23T09:40:00;9.0;;;4.5;;
23252;SDS011;11795;47.054;15.408;2024-03-23T09:42:00;9.0;;;4.5;;
23252;SDS011;11795;47.054;15.408;2024-03-23T09:44:01;5.7;;;4.1;;
23252;SDS011;11795;47.054;15.408;2024-03-23T09:46:01;5.7;;;4.1;;
23252;SDS011;11795;47.054;15.408;2024-03-23T09:48:00;4.9;;;3.9;;
23252;SDS011;11795;47.054;15.408;2024-03-23T09:50:00;4.9;;;3.9;;
23252;SDS011;11795;47.054;15.408;2024-03-23T09:52:00;4.9;;;3.9;;
23252;SDS011;11795;47.054;15.408;2024-03-23T09:54:00;4.8;;;3.5;;
23252;SDS011;11795;47.054;15.408;2024-03-23T09:56:00;4.8;;;3.5;;
23252;SDS011;11795;47.054;15.408;2024-03-23T09:58:00;6.2;;;4.1;;
23252;SDS011;11795;47.054;15.408;2024-03-23T10:00:00;6.2;;;4.1;;
23252;SDS011;11795;47.054;15.408;2024-03-23T10:02:00;6.2;;;4.1;;
23252;SDS011;11795;47.054;15.408;2024-03-23T10:04:00;6.4;;;4.1;;
23252;SDS011;11795;47.054;15.408;2024-03-23T10:06:00;6.4;;;4.1;;
23252;SDS011;11795;47.054;15.408;2024-03-23T10:08:00;6.6;;;4.5;;
23252;SDS011;11795;47.054;15.408;2024-03-23T10:10:02;6.6;;;4.5;;
23252;SDS011;11795;47.054;15.408;2024-03-23T10:12:07;6.6;;;4.5;;
23252;SDS011;11795;47.054;15.408;2024-03-23T10:14:00;5.5;;;3.8;;
23252;SDS011;11795;47.054;15.408;2024-03-23T10:16:00;5.5;;;3.8;;
23252;SDS011;11795;47.054;15.408;2024-03-23T10:18:01;4.7;;;3.6;;
23252;SDS011;11795;47.054;15.408;2024-03-23T10:20:01;4.7;;;3.6;;
23252;SDS011;11795;47.054;15.408;2024-03-23T10:22:00;4.7;;;3.6;;
23252;SDS011;11795;47.054;15.408;2024-03-23T10:24:07;5.0;;;3.5;;
23252;SDS011;11795;47.054;15.408;2024-03-23T10:28:00;4.0;;;3.6;;
23252;SDS011;11795;47.054;15.408;2024-03-23T10:30:07;4.0;;;3.6;;
23252;SDS011;11795;47.054;15.408;2024-03-23T10:32:08;4.0;;;3.6;;
23252;SDS011;11795;47.054;15.408;2024-03-23T10:34:01;4.6;;;3.4;;
23252;SDS011;11795;47.054;15.408;2024-03-23T10:36:00;4.6;;;3.4;;
23252;SDS011;11795;47.054;15.408;2024-03-23T10:38:00;4.2;;;3.5;;
23252;SDS011;11795;47.054;15.408;2024-03-23T10:40:00;4.2;;;3.5;;
23252;SDS011;11795;47.054;15.408;2024-03-23T10:42:01;4.2;;;3.5;;
23252;SDS011;11795;47.054;15.408;2024-03-23T10:44:00;6.4;;;3.4;;
23252;SDS011;11795;47.054;15.408;2024-03-23T10:46:00;6.4;;;3.4;;
23252;SDS011;11795;47.054;15.408;2024-03-23T10:48:01;3.8;;;3.1;;
23252;SDS011;11795;47.054;15.408;2024-03-23T10:50:00;3.8;;;3.1;;
23252;SDS011;11795;47.054;15.408;2024-03-23T10:52:01;3.8;;;3.1;;
23252;SDS011;11795;47.054;15.408;2024-03-23T10:54:00;4.2;;;3.1;;
23252;SDS011;11795;47.054;15.408;2024-03-23T10:56:00;4.2;;;3.1;;
23252;SDS011;11795;47.054;15.408;2024-03-23T10:58:00;3.8;;;2.4;;
23252;SDS011;11795;47.054;15.408;2024-03-23T11:00:01;3.8;;;2.4;;
23252;SDS011;11795;47.054;15.408;2024-03-23T11:02:02;3.8;;;2.4;;
23252;SDS011;11795;47.054;15.408;2024-03-23T11:04:00;3.5;;;2.5;;
23252;SDS011;11795;47.054;15.408;2024-03-23T11:06:00;3.5;;;2.5;;
23252;SDS011;11795;47.054;15.408;2024-03-23T11:08:00;4.6;;;2.8;;
23252;SDS011;11795;47.054;15.408;2024-03-23T11:10:01;4.6;;;2.8;;
23252;SDS011;11795;47.054;15.408;2024-03-23T11:12:00;4.6;;;2.8;;
23252;SDS011;11795;47.054;15.408;2024-03-23T11:14:00;3.6;;;3.2;;
23252;SDS011;11795;47.054;15.408;2024-03-23T11:16:05;3.6;;;3.2;;
23252;SDS011;11795;47.054;15.408;2024-03-23T11:18:02;3.6;;;3.2;;
23252;SDS011;11795;47.054;15.408;2024-03-23T11:20:00;3.1;;;2.5;;
23252;SDS011;11795;47.054;15.408;2024-03-23T11:22:00;3.1;;;2.5;;
23252;SDS011;11795;47.054;15.408;2024-03-23T11:26:00;3.4;;;2.6;;
23252;SDS011;11795;47.054;15.408;2024-03-23T11:28:10;3.4;;;2.6;;
23252;SDS011;11795;47.054;15.408;2024-03-23T11:30:09;3.3;;;3.0;;
23252;SDS011;11795;47.054;15.408;2024-03-23T11:32:03;3.3;;;3.0;;
23252;SDS011;11795;47.054;15.408;2024-03-23T11:34:02;3.8;;;3.1;;
23252;SDS011;11795;47.054;15.408;2024-03-23T11:36:01;3.8;;;3.1;;
23252;SDS011;11795;47.054;15.408;2024-03-23T11:38:02;3.8;;;3.1;;
23252;SDS011;11795;47.054;15.408;2024-03-23T11:42:00;4.5;;;3.5;;
23252;SDS011;11795;47.054;15.408;2024-03-23T11:44:10;4.3;;;3.7;;
23252;SDS011;11795;47.054;15.408;2024-03-23T11:46:03;4.3;;;3.7;;
23252;SDS011;11795;47.054;15.408;2024-03-23T11:48:04;4.3;;;3.7;;
23252;SDS011;11795;47.054;15.408;2024-03-23T11:50:00;3.6;;;3.2;;
23252;SDS011;11795;47.054;15.408;2024-03-23T11:52:00;3.6;;;3.2;;
23252;SDS011;11795;47.054;15.408;2024-03-23T11:54:07;4.5;;;3.5;;
23252;SDS011;11795;47.054;15.408;2024-03-23T11:56:01;4.5;;;3.5;;
23252;SDS011;11795;47.054;15.408;2024-03-23T11:58:00;4.5;;;3.5;;
23252;SDS011;11795;47.054;15.408;2024-03-23T12:00:00;3.2;;;2.9;;
23252;SDS011;11795;47.054;15.408;2024-03-23T12:02:00;3.2;;;2.9;;
23252;SDS011;11795;47.054;15.408;2024-03-23T12:04:00;4.0;;;3.3;;
23252;SDS011;11795;47.054;15.408;2024-03-23T12:06:02;4.0;;;3.3;;
23252;SDS011;11795;47.054;15.408;2024-03-23T12:10:03;3.5;;;3.2;;
23252;SDS011;11795;47.054;15.408;2024-03-23T12:12:05;3.5;;;3.2;;
23252;SDS011;11795;47.054;15.408;2024-03-23T12:14:00;3.5;;;2.7;;
23252;SDS011;11795;47.054;15.408;2024-03-23T12:16:08;3.5;;;2.7;;
23252;SDS011;11795;47.054;15.408;2024-03-23T12:18:07;3.5;;;2.7;;
23252;SDS011;11795;47.054;15.408;2024-03-23T12:20:00;3.2;;;3.0;;
23252;SDS011;11795;47.054;15.408;2024-03-23T12:22:02;3.2;;;3.0;;
23252;SDS011;11795;47.054;15.408;2024-03-23T12:24:00;4.7;;;3.1;;
23252;SDS011;11795;47.054;15.408;2024-03-23T12:26:00;4.7;;;3.1;;
23252;SDS011;11795;47.054;15.408;2024-03-23T12:28:00;4.7;;;3.1;;
23252;SDS011;11795;47.054;15.408;2024-03-23T12:30:02;3.3;;;2.9;;
23252;SDS011;11795;47.054;15.408;2024-03-23T12:32:00;3.3;;;2.9;;
23252;SDS011;11795;47.054;15.408;2024-03-23T12:34:00;3.6;;;2.8;;
23252;SDS011;11795;47.054;15.408;2024-03-23T12:36:00;3.6;;;2.8;;
23252;SDS011;11795;47.054;15.408;2024-03-23T12:38:00;3.6;;;2.8;;
23252;SDS011;11795;47.054;15.408;2024-03-23T12:40:00;3.0;;;2.7;;
23252;SDS011;11795;47.054;15.408;2024-03-23T12:42:00;3.0;;;2.7;;
23252;SDS011;11795;47.054;15.408;2024-03-23T12:44:00;4.8;;;2.6;;
23252;SDS011;11795;47.054;15.408;2024-03-23T12:46:00;4.8;;;2.6;;
23252;SDS011;11795;47.054;15.408;2024-03-23T12:48:00;4.8;;;2.6;;
23252;SDS011;11795;47.054;15.408;2024-03-23T12:50:00;3.2;;;2.8;;
23252;SDS011;11795;47.054;15.408;2024-03-23T12:52:01;3.2;;;2.8;;
23252;SDS011;11795;47.054;15.408;2024-03-23T12:54:00;3.9;;;2.7;;
23252;SDS011;11795;47.054;15.408;2024-03-23T12:56:00;3.9;;;2.7;;
23252;SDS011;11795;47.054;15.408;2024-03-23T12:58:00;3.9;;;2.7;;
23252;SDS011;11795;47.054;15.408;2024-03-23T13:00:00;3.0;;;2.5;;
23252;SDS011;11795;47.054;15.408;2024-03-23T13:02:00;3.0;;;2.5;;
23252;SDS011;11795;47.054;15.408;2024-03-23T13:04:01;3.6;;;2.8;;
23252;SDS011;11795;47.054;15.408;2024-03-23T13:06:00;3.6;;;2.8;;
23252;SDS011;11795;47.054;15.408;2024-03-23T13:08:00;3.6;;;2.8;;
23252;SDS011;11795;47.054;15.408;2024-03-23T13:10:00;2.4;;;2.2;;
23252;SDS011;11795;47.054;15.408;2024-03-23T13:12:00;2.4;;;2.2;;
23252;SDS011;11795;47.054;15.408;2024-03-23T13:14:00;3.6;;;2.5;;